Главная страница
METAR-TAF:

METAR-TAF

Аэропорты :

Сённерборг, Дания

широта: 54-58N, долгота: 009-47E, высота над уровнем моря: 7 м

Текущие метеонаблюдения

Эта сводка был подготовлена 22 минут назад, в 22:50 UTC
Ветер 1 Узел от восточный
Температура 4°C
Влажность 93%
Давление 1038 hPa
Видимость: 2900 м
дымка

METAR: EKSB 172250Z AUTO 08001KT 2900NDV BR NCD 04/03 Q1038

Время: 00:12 (23:12 UTC)

Прогноз

Эта сводка был подготовлена 11 часа и 18 минут назад, в 11:54 UTC
Прогноз действительный с 17-го 12 UTC до 17-го 17 UTC
Ветер 10 Узел от восточно-юго-восточный
Видимость 10 км и более
Отдельные облака на высоте 1500 фута

TAF: EKSB 171154Z 1712/1717 11010KT 9999 SCT015

Метеонаблюдения и прогнозы для более 4000 аэропортов (сводки METAR и TAF).

Имеющиеся станции представлены на карте желтыми и красными точками.

Чтобы увидеть название станции, наведите на нее мышь.

Затем щелкните, чтобы увидеть метеонаблюдения и метеопрогнозы.

Управление картой: чтобы увеличить масштаб, щелкните зеленые кнопки с черным крестиком; чтобы уменьшить масштаб, щелкните зеленую кнопку с тире; для просмотра соседних карт щелкайте зеленые стрелки.


METAR-TAF: